Time;durP1;ratioP1;P1;durP2;ratioP2;P2;SDS_P1;SDS_P2;PMS_P1;PMS_P2;Temp;Humidity;BMP_temperature;BMP_pressure;BME280_temperature;BME280_humidity;BME280_pressure;Samples;Min_cycle;Max_cycle;Signal;HPM_P1;HPM_P2
2022/03/01 00:02:18;;;;;;;21.73;13.35;;;;;;;-0.42;79.21;102862.69;4996346;28;20096;-82
2022/03/01 00:04:43;;;;;;;21.58;13.90;;;;;;;-0.69;79.80;102825.06;4996221;28;20034;-85
2022/03/01 00:07:09;;;;;;;21.58;13.75;;;;;;;-0.71;80.28;102830.13;4996237;28;20113;-83
2022/03/01 00:09:35;;;;;;;22.98;14.63;;;;;;;-0.71;80.92;102844.47;4996182;28;20031;-80
2022/03/01 00:12:00;;;;;;;23.27;14.15;;;;;;;-0.67;81.21;102858.94;4995974;28;20034;-87
2022/03/01 00:14:26;;;;;;;22.70;14.05;;;;;;;-0.72;81.23;102863.94;4995764;28;20077;-77
2022/03/01 00:16:51;;;;;;;21.42;13.23;;;;;;;-0.90;81.51;102838.25;4995958;28;20105;-85
2022/03/01 00:19:16;;;;;;;23.00;14.50;;;;;;;-0.85;81.83;102838.34;4994279;28;20048;-77
2022/03/01 00:21:42;;;;;;;22.75;14.40;;;;;;;-0.90;81.98;102849.25;4995869;28;20033;-77
2022/03/01 00:24:07;;;;;;;23.15;13.80;;;;;;;-0.98;82.13;102844.91;4995733;28;20026;-90
2022/03/01 00:26:33;;;;;;;21.92;14.38;;;;;;;-0.94;82.47;102855.13;4995523;28;20026;-79
2022/03/01 00:28:58;;;;;;;22.67;14.45;;;;;;;-1.00;82.54;102852.47;4995327;28;20080;-79
2022/03/01 00:31:23;;;;;;;25.92;14.50;;;;;;;-1.05;82.66;102859.16;4995515;28;20039;-78
2022/03/01 00:33:49;;;;;;;23.05;15.10;;;;;;;-1.09;82.46;102853.97;4995646;28;20042;-77
2022/03/01 00:36:14;;;;;;;24.67;15.00;;;;;;;-1.16;82.91;102855.56;4995693;28;20064;-78
2022/03/01 00:38:39;;;;;;;24.67;15.15;;;;;;;-1.18;83.12;102855.56;4995385;28;20077;-77
2022/03/01 00:41:05;;;;;;;25.83;15.52;;;;;;;-1.16;83.13;102856.44;4995535;28;20034;-77
2022/03/01 00:43:30;;;;;;;22.25;14.20;;;;;;;-1.19;83.14;102855.50;4994400;28;20065;-82
2022/03/01 00:45:55;;;;;;;24.00;14.80;;;;;;;-1.22;82.97;102851.22;4995317;28;20081;-77
2022/03/01 00:48:21;;;;;;;22.95;15.00;;;;;;;-1.25;83.04;102845.28;4995289;28;20026;-77
2022/03/01 00:50:47;;;;;;;24.25;15.70;;;;;;;-1.29;83.29;102844.34;4995540;28;20042;-79
2022/03/01 00:53:13;;;;;;;22.90;14.35;;;;;;;-1.28;83.77;102852.78;4995032;28;20043;-78
2022/03/01 00:55:38;;;;;;;23.63;14.95;;;;;;;-1.30;83.66;102851.91;4995380;28;20026;-77
2022/03/01 00:58:04;;;;;;;22.60;15.57;;;;;;;-1.31;83.83;102855.28;4995266;28;20037;-77
2022/03/01 01:00:31;;;;;;;23.38;14.85;;;;;;;-1.30;83.61;102854.44;4995099;28;20491;-80
2022/03/01 01:02:56;;;;;;;23.80;15.98;;;;;;;-1.27;83.80;102862.13;4995317;28;20056;-77
2022/03/01 01:05:22;;;;;;;26.08;15.63;;;;;;;-1.29;84.12;102869.69;4995204;28;20495;-76
2022/03/01 01:07:48;;;;;;;22.02;14.60;;;;;;;-1.32;83.85;102856.97;4994923;28;20030;-77
2022/03/01 01:10:14;;;;;;;24.13;14.85;;;;;;;-1.52;84.08;102820.25;4995059;28;20404;-78
2022/03/01 01:12:40;;;;;;;25.90;15.50;;;;;;;-1.33;83.85;102855.25;4995064;28;20038;-79
2022/03/01 01:15:07;;;;;;;22.00;15.13;;;;;;;-1.42;84.37;102854.22;4994697;28;20432;-78
2022/03/01 01:17:33;;;;;;;27.67;15.23;;;;;;;-1.40;84.52;102866.09;4995174;28;20035;-78
2022/03/01 01:19:59;;;;;;;25.33;16.33;;;;;;;-1.46;84.62;102859.25;4995169;28;20026;-78
2022/03/01 01:22:39;;;;;;;24.58;15.23;;;;;;;-1.81;84.84;102800.28;4993432;28;20491;-78
2022/03/01 01:25:06;;;;;;;26.90;15.88;;;;;;;-1.50;84.83;102862.53;4994768;28;20026;-78
2022/03/01 01:27:32;;;;;;;24.65;15.25;;;;;;;-1.71;85.33;102824.13;4994768;28;20396;-79
2022/03/01 01:29:57;;;;;;;26.25;15.75;;;;;;;-1.50;85.13;102851.53;4994482;28;20038;-77
2022/03/01 01:32:23;;;;;;;26.45;16.02;;;;;;;-1.63;85.28;102832.72;4994537;28;20080;-77
2022/03/01 01:34:48;;;;;;;24.33;15.38;;;;;;;-1.51;85.20;102858.28;4994525;28;20030;-80
2022/03/01 01:37:14;;;;;;;25.70;16.05;;;;;;;-1.50;85.37;102849.84;4992970;28;20484;-77
2022/03/01 01:39:39;;;;;;;24.00;15.95;;;;;;;-1.49;85.44;102851.56;4993865;28;20034;-77
2022/03/01 01:42:05;;;;;;;25.05;15.02;;;;;;;-1.51;85.57;102850.69;4994578;28;20038;-79
2022/03/01 01:44:31;;;;;;;24.02;16.23;;;;;;;-1.52;85.87;102854.06;4994425;28;20365;-78
2022/03/01 01:46:56;;;;;;;26.83;16.67;;;;;;;-1.51;85.82;102854.91;4994415;28;20513;-77
2022/03/01 01:49:22;;;;;;;24.70;15.73;;;;;;;-1.48;85.84;102850.75;4994254;28;20061;-78
2022/03/01 01:51:47;;;;;;;27.27;16.55;;;;;;;-1.48;85.82;102853.28;4994062;28;20027;-77
2022/03/01 01:54:13;;;;;;;26.23;16.50;;;;;;;-1.39;85.78;102850.06;4994049;28;20511;-78
2022/03/01 01:56:39;;;;;;;27.23;16.70;;;;;;;-1.68;85.55;102793.78;4994224;28;20468;-78
2022/03/01 01:59:04;;;;;;;24.33;15.80;;;;;;;-1.28;85.32;102848.59;4994077;28;20026;-77
2022/03/01 02:01:29;;;;;;;26.90;16.20;;;;;;;-1.25;85.17;102851.19;4993903;28;20034;-77
2022/03/01 02:03:55;;;;;;;29.02;16.48;;;;;;;-1.20;85.12;102846.19;4993902;28;20018;-81
2022/03/01 02:06:20;;;;;;;28.30;17.25;;;;;;;-1.18;84.90;102842.88;4994048;28;20027;-78
2022/03/01 02:08:45;;;;;;;28.15;16.88;;;;;;;-1.33;85.23;102816.38;4993896;28;20484;-77
2022/03/01 02:11:11;;;;;;;27.13;17.13;;;;;;;-1.15;84.90;102831.94;4993845;28;20030;-77
2022/03/01 02:13:36;;;;;;;26.33;17.02;;;;;;;-1.14;84.75;102826.03;4993811;28;20022;-77
2022/03/01 02:16:03;;;;;;;25.63;15.95;;;;;;;-1.12;84.83;102831.13;4993636;28;20475;-77
2022/03/01 02:18:28;;;;;;;24.65;15.98;;;;;;;-1.09;85.06;102837.09;4993569;28;20061;-80
2022/03/01 02:20:54;;;;;;;25.25;16.23;;;;;;;-1.07;85.41;102843.06;4993813;28;20050;-79
2022/03/01 02:23:19;;;;;;;24.77;16.02;;;;;;;-1.04;84.97;102839.72;4993958;28;20081;-77
2022/03/01 02:25:44;;;;;;;25.88;15.27;;;;;;;-1.05;84.99;102846.47;4993721;28;20030;-78
2022/03/01 02:28:10;;;;;;;29.33;17.17;;;;;;;-1.05;84.81;102848.16;4993672;28;20034;-88
2022/03/01 02:30:36;;;;;;;26.45;17.20;;;;;;;-1.34;84.33;102802.88;4993281;28;20026;-90
2022/03/01 02:33:02;;;;;;;26.40;17.13;;;;;;;-1.07;84.64;102845.59;4993492;28;20057;-88
2022/03/01 02:35:27;;;;;;;26.85;16.65;;;;;;;-1.31;84.48;102799.53;4993796;28;20025;-88
2022/03/01 02:37:53;;;;;;;26.23;16.17;;;;;;;-1.08;84.98;102843.00;4993640;28;20023;-87
2022/03/01 02:40:19;;;;;;;26.05;16.63;;;;;;;-1.12;84.66;102821.84;4994008;28;20080;-83
2022/03/01 02:42:46;;;;;;;25.58;17.02;;;;;;;-1.32;84.81;102796.13;4994530;28;20536;-89
2022/03/01 02:45:15;;;;;;;28.27;16.35;;;;;;;-1.11;84.67;102825.22;4993343;28;20026;-88
2022/03/01 02:47:41;;;;;;;27.80;16.17;;;;;;;-1.06;84.72;102827.03;4993259;28;20076;-89
2022/03/01 02:50:09;;;;;;;27.50;16.67;;;;;;;-1.03;85.22;102827.06;4993243;28;20023;-87
2022/03/01 02:52:35;;;;;;;27.45;16.40;;;;;;;-1.17;85.04;102798.94;4993310;28;20060;-88
2022/03/01 02:55:01;;;;;;;26.10;16.25;;;;;;;-1.03;85.56;102811.84;4993498;28;20054;-86
2022/03/01 02:57:27;;;;;;;25.38;17.33;;;;;;;-1.16;85.13;102782.06;4993202;28;20472;-89
2022/03/01 02:59:53;;;;;;;29.13;17.30;;;;;;;-1.02;85.14;102800.88;4993087;28;20538;-89
2022/03/01 03:02:19;;;;;;;25.13;16.63;;;;;;;-1.05;85.06;102792.38;4993101;28;20026;-77
2022/03/01 03:04:45;;;;;;;25.67;16.88;;;;;;;-0.87;85.13;102815.50;4991343;28;20046;-83
2022/03/01 03:07:11;;;;;;;25.23;16.40;;;;;;;-0.98;84.34;102784.91;4993327;28;20076;-77
2022/03/01 03:09:36;;;;;;;24.42;16.60;;;;;;;-0.77;83.89;102814.81;4993171;28;20044;-88
2022/03/01 03:12:03;;;;;;;27.63;17.42;;;;;;;-0.93;83.88;102785.81;4993456;28;20077;-77
2022/03/01 03:14:28;;;;;;;25.08;16.05;;;;;;;-0.77;83.21;102806.34;4993095;28;20495;-77
2022/03/01 03:16:53;;;;;;;26.75;16.88;;;;;;;-0.77;84.14;102804.66;4992900;28;20058;-77
2022/03/01 03:19:19;;;;;;;26.13;16.52;;;;;;;-0.77;83.29;102798.75;4991816;28;20032;-85
2022/03/01 03:21:46;;;;;;;26.70;17.45;;;;;;;-0.67;83.26;102805.66;4993223;28;20039;-85
2022/03/01 03:24:12;;;;;;;25.80;16.65;;;;;;;-0.67;83.62;102810.75;4992992;28;20068;-85
2022/03/01 03:26:38;;;;;;;31.40;17.20;;;;;;;-0.67;83.47;102815.81;4993048;28;20092;-77
2022/03/01 03:29:08;;;;;;;27.85;17.05;;;;;;;-0.67;83.46;102810.75;4992963;28;20030;-77
2022/03/01 03:31:35;;;;;;;26.15;16.48;;;;;;;-0.85;83.09;102782.56;4991251;28;20038;-77
2022/03/01 03:34:00;;;;;;;24.65;16.67;;;;;;;-0.87;83.00;102773.25;4991842;28;20026;-79
2022/03/01 03:36:26;;;;;;;26.08;17.15;;;;;;;-0.67;83.19;102809.06;4992936;28;20030;-77
2022/03/01 03:38:51;;;;;;;27.38;16.77;;;;;;;-1.00;82.40;102757.78;4992967;28;20030;-77
2022/03/01 03:41:16;;;;;;;24.30;15.95;;;;;;;-0.87;82.93;102773.25;4992843;28;20034;-78
2022/03/01 03:43:44;;;;;;;27.13;16.52;;;;;;;-0.61;83.04;102818.44;4992845;28;20388;-88
2022/03/01 03:46:09;;;;;;;24.02;15.95;;;;;;;-0.59;82.09;102809.16;4992875;28;20045;-84
2022/03/01 03:48:35;;;;;;;26.80;17.65;;;;;;;-0.91;82.17;102750.31;4992458;28;20034;-89
2022/03/01 03:51:00;;;;;;;28.85;17.48;;;;;;;-0.52;82.14;102808.41;4992749;28;20022;-79
2022/03/01 03:53:25;;;;;;;25.42;16.73;;;;;;;-0.50;82.23;102811.81;4992641;28;20053;-78
2022/03/01 03:55:51;;;;;;;26.27;16.17;;;;;;;-0.66;82.37;102782.84;4992740;28;20045;-79
2022/03/01 03:58:16;;;;;;;25.40;16.67;;;;;;;-0.44;81.84;102809.38;4992793;28;20503;-78
2022/03/01 04:00:41;;;;;;;29.33;17.40;;;;;;;-0.50;81.57;102794.06;4992675;28;20388;-81
2022/03/01 04:03:07;;;;;;;25.02;16.15;;;;;;;-0.43;81.48;102803.47;4994624;28;20357;-77
2022/03/01 04:05:32;;;;;;;25.85;16.42;;;;;;;-0.31;81.41;102815.47;4996481;28;20041;-79
2022/03/01 04:07:57;;;;;;;27.40;16.90;;;;;;;-0.44;81.38;102783.16;4996354;28;20027;-79
2022/03/01 04:10:23;;;;;;;25.10;15.27;;;;;;;-0.52;80.63;102766.97;4994401;28;20042;-77
2022/03/01 04:12:48;;;;;;;28.00;16.40;;;;;;;-0.44;81.12;102781.47;4996094;28;20026;-78
2022/03/01 04:15:14;;;;;;;24.77;16.02;;;;;;;-0.22;80.05;102804.59;4996070;28;20104;-78
2022/03/01 04:17:40;;;;;;;25.73;15.55;;;;;;;-0.19;79.95;102812.28;4995936;28;20030;-77
2022/03/01 04:20:06;;;;;;;25.33;14.85;;;;;;;-0.20;80.01;102808.00;4996051;28;20019;-82
2022/03/01 04:22:31;;;;;;;25.27;15.82;;;;;;;-0.35;79.13;102786.66;4996101;28;20018;-78
2022/03/01 04:24:57;;;;;;;24.00;15.75;;;;;;;-0.51;79.94;102751.75;5010431;28;20436;-78
2022/03/01 04:27:23;;;;;;;26.77;15.70;;;;;;;-0.07;79.60;102822.59;4995994;28;20049;-78
2022/03/01 04:29:48;;;;;;;25.63;16.05;;;;;;;-0.03;79.09;102825.16;4995722;28;20022;-77
2022/03/01 04:32:13;;;;;;;25.80;16.48;;;;;;;0.01;79.69;102825.22;4995768;28;20022;-77
2022/03/01 04:34:41;;;;;;;25.80;16.60;;;;;;;0.01;79.89;102826.09;4995552;28;20027;-77
2022/03/01 04:37:06;;;;;;;24.90;15.38;;;;;;;-0.15;79.58;102792.00;4995733;28;20022;-81
2022/03/01 04:39:32;;;;;;;24.48;15.57;;;;;;;0.05;80.12;102816.81;4995575;28;20081;-78
2022/03/01 04:41:57;;;;;;;25.70;16.17;;;;;;;0.06;79.71;102821.91;4995488;28;20018;-77
2022/03/01 04:44:23;;;;;;;24.33;15.23;;;;;;;-0.13;79.78;102795.41;4995652;28;20033;-78
2022/03/01 04:46:48;;;;;;;25.60;16.60;;;;;;;-0.05;79.43;102796.38;4995429;28;20026;-78
2022/03/01 04:49:13;;;;;;;29.10;16.15;;;;;;;0.08;79.38;102819.38;4995159;28;20121;-77
2022/03/01 04:51:39;;;;;;;26.40;16.25;;;;;;;-0.09;79.87;102781.09;4995414;28;20117;-78
2022/03/01 04:54:06;;;;;;;28.05;17.45;;;;;;;0.05;79.49;102811.72;4995292;28;20108;-78
2022/03/01 04:56:31;;;;;;;44.00;22.30;;;;;;;0.07;79.64;102804.97;4995516;28;20031;-79
2022/03/01 04:58:56;;;;;;;52.85;25.63;;;;;;;0.03;80.06;102795.63;4995287;28;20159;-77
2022/03/01 05:01:22;;;;;;;56.83;28.80;;;;;;;0.10;80.33;102807.53;4995229;28;20057;-80
2022/03/01 05:03:47;;;;;;;59.20;29.48;;;;;;;0.11;80.20;102802.50;4995075;28;20109;-78
2022/03/01 05:06:12;;;;;;;56.88;29.50;;;;;;;-0.06;80.70;102773.50;4994836;28;20080;-78
2022/03/01 05:08:37;;;;;;;50.88;28.67;;;;;;;0.09;80.43;102803.28;4993337;28;20038;-77
2022/03/01 05:11:03;;;;;;;40.67;24.27;;;;;;;0.09;79.83;102803.28;4995219;28;20491;-78
2022/03/01 05:13:29;;;;;;;42.50;23.63;;;;;;;0.07;79.71;102813.44;4994254;28;20482;-77
2022/03/01 05:15:54;;;;;;;36.72;22.52;;;;;;;-0.03;79.99;102796.38;4994697;28;20065;-78
2022/03/01 05:18:21;;;;;;;35.30;20.80;;;;;;;-0.13;79.61;102785.25;4994793;28;20030;-78
2022/03/01 05:20:47;;;;;;;31.63;20.25;;;;;;;-0.11;80.36;102791.19;4994580;28;20034;-78
2022/03/01 05:23:12;;;;;;;27.65;18.38;;;;;;;0.01;79.25;102804.91;4994840;28;20026;-80
2022/03/01 05:25:38;;;;;;;30.30;18.90;;;;;;;0.00;80.40;102793.91;4993082;28;20046;-77
2022/03/01 05:28:04;;;;;;;27.67;18.58;;;;;;;0.01;79.50;102800.69;4995055;28;20037;-78
2022/03/01 05:30:29;;;;;;;32.55;19.25;;;;;;;-0.02;79.73;102782.84;4994712;28;20425;-80
2022/03/01 05:32:54;;;;;;;30.48;18.98;;;;;;;0.02;79.46;102786.31;4994515;28;20030;-81
2022/03/01 05:35:24;;;;;;;27.00;17.95;;;;;;;0.05;78.44;102773.63;4994438;28;20092;-80
2022/03/01 05:37:52;;;;;;;26.38;16.55;;;;;;;0.11;78.24;102777.09;4994357;28;20053;-77
2022/03/01 05:40:19;;;;;;;26.38;16.65;;;;;;;0.11;78.08;102768.63;4994565;28;20499;-80
2022/03/01 05:42:45;;;;;;;27.85;16.73;;;;;;;0.19;78.72;102780.56;4994479;28;20030;-77
2022/03/01 05:45:11;;;;;;;30.05;16.80;;;;;;;0.03;77.89;102755.84;4994529;28;20034;-76
2022/03/01 05:47:38;;;;;;;30.08;17.88;;;;;;;0.19;77.99;102778.00;4994928;28;20026;-79
2022/03/01 05:50:04;;;;;;;28.40;17.23;;;;;;;0.14;78.30;102773.72;4994399;28;20026;-88
2022/03/01 05:52:29;;;;;;;29.15;17.55;;;;;;;0.09;77.96;102773.66;4993950;28;20506;-83
2022/03/01 05:54:55;;;;;;;26.05;16.95;;;;;;;0.04;78.13;102780.41;4994217;28;20023;-89
2022/03/01 05:57:23;;;;;;;25.70;17.33;;;;;;;-0.17;79.47;102753.06;4994137;28;20035;-86
2022/03/01 05:59:49;;;;;;;28.95;16.30;;;;;;;-0.16;78.52;102770.00;4994378;28;20444;-90
2022/03/01 06:02:14;;;;;;;25.20;16.63;;;;;;;-0.20;78.77;102777.53;4998360;28;20026;-77
2022/03/01 06:04:39;;;;;;;27.92;18.00;;;;;;;-0.50;79.04;102728.06;4994431;28;20030;-89
2022/03/01 06:07:04;;;;;;;28.98;17.45;;;;;;;-0.25;79.35;102785.09;4994079;28;20029;-91
2022/03/01 06:09:30;;;;;;;27.40;17.48;;;;;;;-0.31;79.38;102768.09;4994154;28;20022;-92
2022/03/01 06:11:55;;;;;;;27.90;17.42;;;;;;;-0.37;79.61;102767.19;4993955;28;20084;-91
2022/03/01 06:14:20;;;;;;;32.45;18.85;;;;;;;-0.41;79.98;102765.41;4993990;28;20023;-89
2022/03/01 06:16:46;;;;;;;29.25;18.88;;;;;;;-0.46;80.60;102777.22;4993666;28;20376;-91
2022/03/01 06:19:11;;;;;;;30.95;18.13;;;;;;;-0.95;80.73;102697.88;4993553;28;20499;-92
2022/03/01 06:21:37;;;;;;;32.60;19.35;;;;;;;-0.86;80.33;102723.38;4993813;28;20043;-91
2022/03/01 06:24:04;;;;;;;29.77;19.20;;;;;;;-0.64;80.56;102771.03;4993664;28;20062;-91
2022/03/01 06:26:29;;;;;;;31.08;18.25;;;;;;;-0.57;81.05;102778.75;4993739;28;20026;-88
2022/03/01 06:28:55;;;;;;;33.22;18.35;;;;;;;-0.61;81.15;102776.16;4993944;28;20030;-94
2022/03/01 06:31:21;;;;;;;30.10;18.10;;;;;;;-0.79;81.05;102745.44;5008447;28;20042;-81
2022/03/01 06:33:46;;;;;;;29.70;18.13;;;;;;;-0.61;81.04;102771.06;4994191;28;20046;-88
2022/03/01 06:36:11;;;;;;;30.48;19.63;;;;;;;-0.59;81.49;102788.84;4993591;28;20027;-90
2022/03/01 06:38:37;;;;;;;30.30;18.58;;;;;;;-0.72;81.45;102764.13;4994327;28;20476;-93
2022/03/01 06:41:02;;;;;;;30.38;19.98;;;;;;;-0.53;81.83;102795.72;4993610;28;20034;-91
2022/03/01 06:43:27;;;;;;;29.50;18.63;;;;;;;-0.65;81.99;102771.00;4993518;28;20053;-86
2022/03/01 06:45:53;;;;;;;31.13;19.30;;;;;;;-0.54;81.65;102772.03;4993387;28;20080;-83
2022/03/01 06:48:18;;;;;;;29.45;19.15;;;;;;;-0.44;82.06;102778.06;4993410;28;20030;-90
2022/03/01 06:50:44;;;;;;;27.80;18.50;;;;;;;-0.30;81.60;102789.25;4993202;28;20038;-87
2022/03/01 06:53:09;;;;;;;29.80;19.02;;;;;;;-0.09;80.97;102806.47;4992940;28;20042;-89
2022/03/01 06:55:35;;;;;;;31.40;18.63;;;;;;;0.03;81.16;102810.84;4993418;28;20029;-86
2022/03/01 06:58:00;;;;;;;31.98;19.52;;;;;;;0.14;80.95;102809.31;4993016;28;20041;-91
2022/03/01 07:00:26;;;;;;;29.67;19.55;;;;;;;0.04;80.31;102777.00;4993218;28;20035;-79
2022/03/01 07:02:51;;;;;;;30.63;19.42;;;;;;;0.10;79.60;102775.41;4993373;28;20018;-78
2022/03/01 07:05:17;;;;;;;32.92;20.30;;;;;;;0.41;79.76;102803.69;4993048;28;20022;-86
2022/03/01 07:07:43;;;;;;;29.98;19.35;;;;;;;0.60;79.23;102817.44;4993059;28;20109;-88
2022/03/01 07:10:13;;;;;;;31.95;20.13;;;;;;;0.69;78.86;102818.38;4992905;28;20441;-77
2022/03/01 07:12:40;;;;;;;31.42;19.02;;;;;;;0.91;77.43;102828.75;4993173;28;20027;-80
2022/03/01 07:15:07;;;;;;;34.53;19.75;;;;;;;1.04;77.99;102831.41;4993187;28;20022;-83
2022/03/01 07:17:32;;;;;;;33.13;18.45;;;;;;;1.20;77.24;102826.47;4992993;28;20049;-83
2022/03/01 07:19:57;;;;;;;27.67;18.08;;;;;;;1.34;76.35;102823.16;4992884;28;20030;-83
2022/03/01 07:22:23;;;;;;;28.08;17.33;;;;;;;1.45;74.32;102810.50;4993158;28;20027;-79
2022/03/01 07:24:48;;;;;;;26.67;17.30;;;;;;;1.55;74.27;102816.50;4992971;28;20096;-82
2022/03/01 07:27:13;;;;;;;28.25;17.42;;;;;;;1.41;73.16;102783.34;4993046;28;20547;-78
2022/03/01 07:29:39;;;;;;;29.58;17.50;;;;;;;1.74;72.23;102825.97;4992944;28;20121;-80
2022/03/01 07:32:05;;;;;;;29.27;17.15;;;;;;;1.64;71.53;102801.28;4993072;28;20034;-81
2022/03/01 07:34:31;;;;;;;26.98;16.70;;;;;;;1.82;71.13;102815.81;4991696;28;20022;-76
2022/03/01 07:36:56;;;;;;;28.40;17.08;;;;;;;1.82;70.81;102806.50;4978744;28;20107;-82
2022/03/01 07:39:24;;;;;;;26.33;17.63;;;;;;;2.03;69.77;102840.56;4978101;28;20022;-76
2022/03/01 07:41:50;;;;;;;27.00;16.90;;;;;;;2.09;70.11;102844.00;4977897;28;20735;-76
2022/03/01 07:44:16;;;;;;;25.23;16.55;;;;;;;2.15;69.58;102841.44;4977261;28;20026;-76
2022/03/01 07:46:42;;;;;;;29.05;17.38;;;;;;;2.21;69.80;102840.63;4977154;28;20022;-82
2022/03/01 07:49:07;;;;;;;26.90;16.17;;;;;;;1.97;69.21;102795.53;4977172;28;20027;-76
2022/03/01 07:51:33;;;;;;;28.98;17.83;;;;;;;2.28;70.05;102838.13;4976825;28;20081;-77
2022/03/01 07:53:58;;;;;;;30.48;18.80;;;;;;;2.11;69.21;102796.44;4976692;28;20044;-78
2022/03/01 07:56:25;;;;;;;32.47;19.20;;;;;;;2.33;69.40;102827.09;4977126;28;20366;-78
2022/03/01 07:58:51;;;;;;;34.63;19.90;;;;;;;2.24;68.91;102815.16;4977182;28;20058;-78
2022/03/01 08:01:17;;;;;;;32.33;17.77;;;;;;;2.22;68.90;102811.75;4976879;28;20031;-81
2022/03/01 08:03:42;;;;;;;29.40;17.98;;;;;;;2.26;69.81;102826.19;4976804;28;20500;-80
2022/03/01 08:06:09;;;;;;;29.95;19.83;;;;;;;2.04;69.78;102793.84;4976769;28;20054;-84
2022/03/01 08:08:35;;;;;;;30.45;18.00;;;;;;;2.19;70.25;102825.34;4976564;28;20026;-84
2022/03/01 08:11:01;;;;;;;30.90;19.23;;;;;;;2.05;69.84;102806.59;4976680;28;20035;-74
2022/03/01 08:13:27;;;;;;;28.85;18.27;;;;;;;2.27;69.59;102833.88;4976536;28;20043;-78
2022/03/01 08:15:52;;;;;;;27.77;17.73;;;;;;;2.36;70.12;102843.25;4976769;28;20392;-81
2022/03/01 08:18:18;;;;;;;25.95;16.85;;;;;;;2.40;69.92;102831.38;4976727;28;20469;-77
2022/03/01 08:20:43;;;;;;;29.15;17.45;;;;;;;2.62;69.57;102834.81;4976754;28;20151;-81
2022/03/01 08:23:09;;;;;;;27.55;16.77;;;;;;;2.45;69.06;102799.91;4976786;28;20480;-77
2022/03/01 08:25:35;;;;;;;25.65;16.27;;;;;;;2.74;68.57;102832.28;4991127;28;20125;-80
2022/03/01 08:28:01;;;;;;;26.35;16.17;;;;;;;2.82;68.88;102836.53;4976506;28;20031;-83
2022/03/01 08:30:27;;;;;;;30.23;17.00;;;;;;;2.76;68.51;102807.66;4976440;28;20035;-87
2022/03/01 08:32:53;;;;;;;27.92;17.48;;;;;;;2.98;68.11;102836.56;4976407;28;20042;-83
2022/03/01 08:35:19;;;;;;;26.67;16.33;;;;;;;3.02;68.11;102826.34;4976287;28;20026;-76
2022/03/01 08:37:44;;;;;;;27.90;17.00;;;;;;;3.28;67.83;102840.84;4976121;28;20027;-86
2022/03/01 08:40:12;;;;;;;30.92;17.55;;;;;;;3.38;67.76;102840.81;4976397;28;20080;-77
2022/03/01 08:42:37;;;;;;;28.65;17.75;;;;;;;3.47;67.61;102839.97;4976320;28;20037;-81
2022/03/01 08:45:03;;;;;;;27.90;17.15;;;;;;;3.59;66.86;102846.75;4976350;28;20031;-75
2022/03/01 08:47:29;;;;;;;29.23;17.92;;;;;;;3.54;66.40;102823.78;4976087;28;20116;-80
2022/03/01 08:49:54;;;;;;;24.88;16.40;;;;;;;3.81;66.77;102857.78;4975773;28;20070;-78
2022/03/01 08:52:20;;;;;;;25.90;16.83;;;;;;;3.95;66.73;102853.50;4974459;28;20038;-74
2022/03/01 08:54:45;;;;;;;28.90;16.90;;;;;;;4.05;65.80;102851.75;4975942;28;20047;-78
2022/03/01 08:57:11;;;;;;;26.00;16.92;;;;;;;4.17;64.68;102855.13;4975945;28;20027;-77
2022/03/01 08:59:37;;;;;;;25.50;16.25;;;;;;;4.33;64.88;102858.47;4975934;28;20034;-74
2022/03/01 09:02:03;;;;;;;25.58;16.48;;;;;;;4.34;63.90;102831.19;4975661;28;20078;-77
2022/03/01 09:04:28;;;;;;;26.85;17.42;;;;;;;4.65;63.42;102855.75;4975736;28;20026;-76
2022/03/01 09:06:54;;;;;;;27.67;16.65;;;;;;;4.81;64.04;102861.59;4975672;28;20093;-77
2022/03/01 09:09:19;;;;;;;28.02;17.67;;;;;;;4.88;62.95;102848.75;4975714;28;20070;-93
2022/03/01 09:11:44;;;;;;;29.00;17.77;;;;;;;5.12;62.32;102881.03;4975634;28;20054;-90
2022/03/01 09:14:09;;;;;;;25.35;16.23;;;;;;;5.17;63.09;102875.88;4975708;28;20395;-92
2022/03/01 09:16:35;;;;;;;26.58;16.55;;;;;;;5.32;61.57;102878.31;4975552;28;20078;-91
2022/03/01 09:19:00;;;;;;;26.63;16.98;;;;;;;5.40;62.47;102843.22;4975389;28;20035;-89
2022/03/01 09:21:26;;;;;;;24.67;15.65;;;;;;;5.68;61.10;102859.16;4975364;28;20050;-89
2022/03/01 09:23:51;;;;;;;25.27;15.82;;;;;;;5.65;60.27;102830.19;4975578;28;20022;-88
2022/03/01 09:26:16;;;;;;;24.00;15.93;;;;;;;5.82;59.26;102856.50;4976831;28;20420;-90
2022/03/01 09:28:42;;;;;;;25.38;15.73;;;;;;;5.76;59.22;102849.69;4975387;28;20126;-89
2022/03/01 09:31:10;;;;;;;24.70;15.40;;;;;;;5.69;58.88;102826.69;4975414;28;20106;-91
2022/03/01 09:33:37;;;;;;;26.30;15.90;;;;;;;5.79;59.47;102846.25;4975178;28;20058;-86
2022/03/01 09:36:02;;;;;;;23.38;15.75;;;;;;;5.92;59.14;102860.69;4989861;28;20035;-94
2022/03/01 09:38:28;;;;;;;25.63;14.80;;;;;;;5.99;59.13;102861.44;4975170;28;20037;-89
2022/03/01 09:40:53;;;;;;;22.52;15.13;;;;;;;6.03;58.82;102853.72;4975032;28;20035;-92
2022/03/01 09:43:20;;;;;;;22.92;15.10;;;;;;;6.13;59.28;102861.31;4974930;28;20038;-85
2022/03/01 09:45:46;;;;;;;23.52;14.98;;;;;;;6.21;58.22;102860.34;4975002;28;20030;-89
2022/03/01 09:48:11;;;;;;;22.45;15.57;;;;;;;6.28;57.97;102867.06;4975132;28;20027;-86
2022/03/01 09:50:37;;;;;;;23.48;15.30;;;;;;;6.02;58.16;102816.13;4974911;28;20031;-89
2022/03/01 09:53:03;;;;;;;24.63;15.63;;;;;;;6.35;56.62;102872.13;4974647;28;20125;-84
2022/03/01 09:55:28;;;;;;;23.27;15.40;;;;;;;6.37;58.28;102868.69;4974923;28;20038;-77
2022/03/01 09:57:56;;;;;;;25.75;16.38;;;;;;;6.24;56.92;102839.78;4974710;28;20030;-75
2022/03/01 10:00:22;;;;;;;26.50;15.77;;;;;;;6.37;56.53;102875.53;4974068;28;20022;-75
2022/03/01 10:02:53;;;;;;;25.80;14.75;;;;;;;6.40;57.41;102876.38;4974920;28;20491;-76
2022/03/01 10:05:18;;;;;;;23.58;14.93;;;;;;;6.43;55.94;102873.75;4974628;28;20081;-76
2022/03/01 10:07:46;;;;;;;23.63;15.57;;;;;;;6.27;55.97;102849.97;4972692;28;20038;-76
2022/03/01 10:10:16;;;;;;;23.63;15.10;;;;;;;6.39;56.43;102866.97;4973377;28;20563;-79
2022/03/01 10:12:44;;;;;;;23.92;14.38;;;;;;;6.46;56.34;102881.41;4974600;28;20114;-78
2022/03/01 10:15:11;;;;;;;23.13;15.18;;;;;;;6.46;56.23;102886.53;4974479;28;20023;-78
2022/03/01 10:17:40;;;;;;;23.95;15.27;;;;;;;6.39;56.24;102872.09;4974613;28;20074;-77
2022/03/01 10:20:15;;;;;;;24.05;15.27;;;;;;;6.42;56.46;102872.06;4974334;28;20496;-76
2022/03/01 10:22:48;;;;;;;24.38;16.13;;;;;;;6.56;57.27;102877.00;4974322;28;20034;-77
2022/03/01 10:25:15;;;;;;;25.77;15.52;;;;;;;6.45;56.09;102840.34;4974365;28;20034;-80
2022/03/01 10:27:45;;;;;;;25.58;15.55;;;;;;;6.69;55.54;102868.28;4974404;28;20037;-75
2022/03/01 10:30:11;;;;;;;25.90;15.65;;;;;;;6.87;54.94;102856.84;4974370;28;20030;-78
2022/03/01 10:32:37;;;;;;;29.10;16.23;;;;;;;7.01;54.95;102854.94;4974133;28;20057;-78
2022/03/01 10:35:08;;;;;;;25.70;15.43;;;;;;;7.00;53.93;102842.97;4988819;28;20070;-78
2022/03/01 10:37:40;;;;;;;25.90;15.43;;;;;;;7.21;54.14;102846.91;4974146;28;20086;-78
2022/03/01 10:40:12;;;;;;;26.88;15.63;;;;;;;7.42;53.93;102859.41;4974011;28;20042;-76
2022/03/01 10:42:38;;;;;;;25.73;15.07;;;;;;;7.45;53.24;102861.91;4974314;28;20023;-76
2022/03/01 10:45:05;;;;;;;22.65;15.27;;;;;;;7.38;53.88;102823.50;4974200;28;20031;-79
2022/03/01 10:47:32;;;;;;;23.35;15.20;;;;;;;7.45;53.52;102835.34;4974626;28;20022;-78
2022/03/01 10:50:03;;;;;;;26.20;16.25;;;;;;;7.67;53.44;102866.66;4974053;28;20098;-82
2022/03/01 10:52:39;;;;;;;27.08;16.92;;;;;;;7.73;53.19;102851.97;4972799;28;20077;-78
2022/03/01 10:55:05;;;;;;;22.90;15.07;;;;;;;7.68;52.90;102832.38;4973910;28;20023;-81
2022/03/01 10:57:31;;;;;;;24.80;16.45;;;;;;;7.93;53.08;102841.31;4972763;28;20030;-79
2022/03/01 10:59:56;;;;;;;22.88;15.65;;;;;;;8.19;52.43;102863.94;4974266;28;20027;-77
2022/03/01 11:02:22;;;;;;;24.13;16.02;;;;;;;8.15;52.14;102838.28;4973898;28;20023;-79
2022/03/01 11:04:49;;;;;;;25.02;17.17;;;;;;;8.36;51.24;102855.91;4973684;28;20019;-80
2022/03/01 11:07:16;;;;;;;25.25;16.33;;;;;;;8.50;51.91;102863.34;4973573;28;20031;-77